sensor_id;sensor_type;location;lat;lon;timestamp;P1;durP1;ratioP1;P2;durP2;ratioP2
76536;SDS011;65381;51.254;15.592;2022-11-20T09:22:49;24.73;;;12.40;;
76536;SDS011;65381;51.254;15.592;2022-11-20T09:25:17;22.17;;;11.80;;
76536;SDS011;65381;51.254;15.592;2022-11-20T09:27:45;25.48;;;12.45;;
76536;SDS011;65381;51.254;15.592;2022-11-20T09:30:13;23.35;;;12.88;;
76536;SDS011;65381;51.254;15.592;2022-11-20T09:32:42;24.90;;;12.60;;
76536;SDS011;65381;51.254;15.592;2022-11-20T09:35:10;22.23;;;11.90;;
76536;SDS011;65381;51.254;15.592;2022-11-20T09:37:38;24.58;;;12.07;;
76536;SDS011;65381;51.254;15.592;2022-11-20T09:40:09;23.70;;;11.73;;
76536;SDS011;65381;51.254;15.592;2022-11-20T09:56:25;27.85;;;13.32;;
76536;SDS011;65381;51.254;15.592;2022-11-20T09:58:54;23.33;;;13.68;;
76536;SDS011;65381;51.254;15.592;2022-11-20T10:09:38;26.60;;;13.02;;
76536;SDS011;65381;51.254;15.592;2022-11-20T10:20:19;24.42;;;13.57;;
76536;SDS011;65381;51.254;15.592;2022-11-20T10:25:39;20.35;;;12.25;;
76536;SDS011;65381;51.254;15.592;2022-11-20T10:31:00;21.45;;;13.73;;
76536;SDS011;65381;51.254;15.592;2022-11-20T10:33:31;18.23;;;12.73;;
76536;SDS011;65381;51.254;15.592;2022-11-20T10:36:25;24.83;;;12.93;;
76536;SDS011;65381;51.254;15.592;2022-11-20T10:41:43;20.40;;;12.35;;
76536;SDS011;65381;51.254;15.592;2022-11-20T10:44:17;21.95;;;12.55;;
76536;SDS011;65381;51.254;15.592;2022-11-20T10:47:12;21.80;;;12.50;;
76536;SDS011;65381;51.254;15.592;2022-11-20T10:49:42;23.45;;;12.05;;
76536;SDS011;65381;51.254;15.592;2022-11-20T10:55:08;22.30;;;12.23;;
76536;SDS011;65381;51.254;15.592;2022-11-20T11:00:18;24.08;;;12.73;;
76536;SDS011;65381;51.254;15.592;2022-11-20T11:02:53;26.73;;;12.55;;
76536;SDS011;65381;51.254;15.592;2022-11-20T11:07:57;22.55;;;11.50;;
76536;SDS011;65381;51.254;15.592;2022-11-20T11:10:32;20.00;;;10.48;;
76536;SDS011;65381;51.254;15.592;2022-11-20T11:13:18;29.55;;;12.57;;
76536;SDS011;65381;51.254;15.592;2022-11-20T11:15:47;33.35;;;12.77;;
76536;SDS011;65381;51.254;15.592;2022-11-20T11:20:59;23.90;;;12.25;;
76536;SDS011;65381;51.254;15.592;2022-11-20T11:26:18;24.42;;;11.25;;
76536;SDS011;65381;51.254;15.592;2022-11-20T11:28:58;28.08;;;11.77;;
76536;SDS011;65381;51.254;15.592;2022-11-20T11:31:31;22.92;;;11.35;;
76536;SDS011;65381;51.254;15.592;2022-11-20T11:34:06;26.25;;;12.07;;
76536;SDS011;65381;51.254;15.592;2022-11-20T11:36:40;26.00;;;11.63;;
76536;SDS011;65381;51.254;15.592;2022-11-20T11:39:14;25.98;;;12.13;;
76536;SDS011;65381;51.254;15.592;2022-11-20T11:41:44;31.35;;;12.23;;
76536;SDS011;65381;51.254;15.592;2022-11-20T11:47:00;27.42;;;10.98;;
76536;SDS011;65381;51.254;15.592;2022-11-20T11:49:29;25.48;;;11.88;;
76536;SDS011;65381;51.254;15.592;2022-11-20T11:57:33;27.15;;;12.32;;
76536;SDS011;65381;51.254;15.592;2022-11-20T12:00:17;25.05;;;12.27;;
76536;SDS011;65381;51.254;15.592;2022-11-20T12:03:13;33.17;;;11.30;;
76536;SDS011;65381;51.254;15.592;2022-11-20T12:06:34;29.88;;;11.68;;
76536;SDS011;65381;51.254;15.592;2022-11-20T12:11:33;23.23;;;11.60;;
76536;SDS011;65381;51.254;15.592;2022-11-20T12:17:03;30.95;;;11.10;;
76536;SDS011;65381;51.254;15.592;2022-11-20T12:19:33;25.25;;;11.30;;
76536;SDS011;65381;51.254;15.592;2022-11-20T12:30:22;20.42;;;11.32;;
76536;SDS011;65381;51.254;15.592;2022-11-20T12:44:20;22.95;;;10.73;;
76536;SDS011;65381;51.254;15.592;2022-11-20T12:49:55;41.75;;;12.52;;
76536;SDS011;65381;51.254;15.592;2022-11-20T13:07:53;34.58;;;13.82;;
76536;SDS011;65381;51.254;15.592;2022-11-20T13:10:33;35.00;;;14.20;;
76536;SDS011;65381;51.254;15.592;2022-11-20T13:13:16;32.90;;;13.98;;
76536;SDS011;65381;51.254;15.592;2022-11-20T13:15:50;35.55;;;15.25;;
76536;SDS011;65381;51.254;15.592;2022-11-20T13:18:28;33.60;;;15.45;;
76536;SDS011;65381;51.254;15.592;2022-11-20T13:21:02;35.22;;;15.48;;
76536;SDS011;65381;51.254;15.592;2022-11-20T13:23:41;33.80;;;14.43;;
76536;SDS011;65381;51.254;15.592;2022-11-20T13:26:19;35.72;;;13.95;;
76536;SDS011;65381;51.254;15.592;2022-11-20T13:28:59;33.75;;;13.85;;
76536;SDS011;65381;51.254;15.592;2022-11-20T13:31:35;29.25;;;11.82;;
76536;SDS011;65381;51.254;15.592;2022-11-20T13:34:11;42.42;;;16.88;;
76536;SDS011;65381;51.254;15.592;2022-11-20T13:36:48;38.97;;;15.93;;
76536;SDS011;65381;51.254;15.592;2022-11-20T13:39:25;34.63;;;14.45;;
76536;SDS011;65381;51.254;15.592;2022-11-20T13:41:57;34.50;;;14.70;;
76536;SDS011;65381;51.254;15.592;2022-11-20T13:44:38;34.67;;;14.43;;
76536;SDS011;65381;51.254;15.592;2022-11-20T13:47:23;32.78;;;13.70;;
76536;SDS011;65381;51.254;15.592;2022-11-20T13:49:52;31.15;;;12.85;;
76536;SDS011;65381;51.254;15.592;2022-11-20T14:00:43;26.35;;;11.23;;
76536;SDS011;65381;51.254;15.592;2022-11-20T14:03:24;23.40;;;10.65;;
76536;SDS011;65381;51.254;15.592;2022-11-20T14:06:21;25.00;;;10.68;;
76536;SDS011;65381;51.254;15.592;2022-11-20T14:08:57;23.80;;;10.73;;
76536;SDS011;65381;51.254;15.592;2022-11-20T14:11:29;23.40;;;9.15;;
76536;SDS011;65381;51.254;15.592;2022-11-20T14:16:29;24.88;;;10.60;;
76536;SDS011;65381;51.254;15.592;2022-11-20T14:19:17;23.75;;;10.63;;
76536;SDS011;65381;51.254;15.592;2022-11-20T14:24:34;27.92;;;11.05;;
76536;SDS011;65381;51.254;15.592;2022-11-20T14:27:03;27.38;;;11.32;;
76536;SDS011;65381;51.254;15.592;2022-11-20T14:29:34;27.00;;;11.98;;
76536;SDS011;65381;51.254;15.592;2022-11-20T14:32:04;32.42;;;12.77;;
76536;SDS011;65381;51.254;15.592;2022-11-20T14:34:32;27.77;;;12.10;;
76536;SDS011;65381;51.254;15.592;2022-11-20T14:37:09;34.40;;;13.25;;
76536;SDS011;65381;51.254;15.592;2022-11-20T14:39:47;35.40;;;12.95;;
76536;SDS011;65381;51.254;15.592;2022-11-20T14:42:21;28.70;;;12.43;;
76536;SDS011;65381;51.254;15.592;2022-11-20T14:44:56;32.03;;;12.27;;
76536;SDS011;65381;51.254;15.592;2022-11-20T14:47:26;31.25;;;12.88;;
76536;SDS011;65381;51.254;15.592;2022-11-20T14:49:57;31.80;;;12.98;;
76536;SDS011;65381;51.254;15.592;2022-11-20T14:52:33;37.08;;;13.30;;
76536;SDS011;65381;51.254;15.592;2022-11-20T14:55:01;33.40;;;13.27;;
76536;SDS011;65381;51.254;15.592;2022-11-20T14:57:30;33.42;;;14.50;;
76536;SDS011;65381;51.254;15.592;2022-11-20T15:02:43;35.58;;;13.50;;
76536;SDS011;65381;51.254;15.592;2022-11-20T15:05:13;32.42;;;13.55;;
76536;SDS011;65381;51.254;15.592;2022-11-20T15:07:43;34.60;;;13.38;;
76536;SDS011;65381;51.254;15.592;2022-11-20T15:10:20;35.67;;;14.60;;
76536;SDS011;65381;51.254;15.592;2022-11-20T15:12:53;35.00;;;14.13;;
76536;SDS011;65381;51.254;15.592;2022-11-20T15:15:49;38.42;;;15.45;;
76536;SDS011;65381;51.254;15.592;2022-11-20T15:18:23;37.85;;;14.40;;
76536;SDS011;65381;51.254;15.592;2022-11-20T15:21:03;41.05;;;16.42;;
76536;SDS011;65381;51.254;15.592;2022-11-20T15:23:37;37.47;;;14.35;;
76536;SDS011;65381;51.254;15.592;2022-11-20T15:26:05;34.67;;;14.25;;
76536;SDS011;65381;51.254;15.592;2022-11-20T15:28:34;36.97;;;15.95;;
76536;SDS011;65381;51.254;15.592;2022-11-20T15:31:06;31.17;;;12.95;;
76536;SDS011;65381;51.254;15.592;2022-11-20T15:33:34;33.38;;;12.95;;
76536;SDS011;65381;51.254;15.592;2022-11-20T15:36:01;35.80;;;13.52;;
76536;SDS011;65381;51.254;15.592;2022-11-20T15:38:30;37.00;;;15.18;;
76536;SDS011;65381;51.254;15.592;2022-11-20T15:40:57;33.72;;;13.30;;
76536;SDS011;65381;51.254;15.592;2022-11-20T15:43:25;32.55;;;14.02;;
76536;SDS011;65381;51.254;15.592;2022-11-20T15:45:54;33.08;;;14.35;;
76536;SDS011;65381;51.254;15.592;2022-11-20T15:48:32;34.25;;;14.55;;
76536;SDS011;65381;51.254;15.592;2022-11-20T15:53:56;33.53;;;12.88;;
76536;SDS011;65381;51.254;15.592;2022-11-20T15:56:24;33.60;;;14.45;;
76536;SDS011;65381;51.254;15.592;2022-11-20T15:58:53;33.00;;;13.20;;
76536;SDS011;65381;51.254;15.592;2022-11-20T16:01:21;33.10;;;13.52;;
76536;SDS011;65381;51.254;15.592;2022-11-20T16:03:50;29.30;;;12.20;;
76536;SDS011;65381;51.254;15.592;2022-11-20T16:06:17;30.80;;;13.48;;
76536;SDS011;65381;51.254;15.592;2022-11-20T16:08:48;30.33;;;14.27;;
76536;SDS011;65381;51.254;15.592;2022-11-20T16:11:16;30.88;;;13.88;;
76536;SDS011;65381;51.254;15.592;2022-11-20T16:13:45;33.40;;;13.70;;
76536;SDS011;65381;51.254;15.592;2022-11-20T16:16:27;32.97;;;13.45;;
76536;SDS011;65381;51.254;15.592;2022-11-20T16:18:58;37.38;;;15.10;;
76536;SDS011;65381;51.254;15.592;2022-11-20T16:21:27;44.22;;;17.95;;
76536;SDS011;65381;51.254;15.592;2022-11-20T16:23:59;45.10;;;19.73;;
76536;SDS011;65381;51.254;15.592;2022-11-20T16:26:29;47.03;;;21.55;;
76536;SDS011;65381;51.254;15.592;2022-11-20T16:29:01;32.47;;;14.10;;
76536;SDS011;65381;51.254;15.592;2022-11-20T16:31:30;37.33;;;15.77;;
76536;SDS011;65381;51.254;15.592;2022-11-20T16:33:59;39.03;;;17.70;;
76536;SDS011;65381;51.254;15.592;2022-11-20T16:39:06;47.03;;;20.52;;
76536;SDS011;65381;51.254;15.592;2022-11-20T16:41:35;70.05;;;31.10;;
76536;SDS011;65381;51.254;15.592;2022-11-20T16:44:08;45.08;;;20.10;;
76536;SDS011;65381;51.254;15.592;2022-11-20T16:46:39;45.42;;;18.02;;
76536;SDS011;65381;51.254;15.592;2022-11-20T16:49:11;46.15;;;20.98;;
76536;SDS011;65381;51.254;15.592;2022-11-20T16:51:39;48.80;;;23.63;;
76536;SDS011;65381;51.254;15.592;2022-11-20T16:54:08;54.10;;;25.38;;
76536;SDS011;65381;51.254;15.592;2022-11-20T16:56:36;65.80;;;28.95;;
76536;SDS011;65381;51.254;15.592;2022-11-20T16:59:05;62.50;;;28.60;;
76536;SDS011;65381;51.254;15.592;2022-11-20T17:01:33;51.17;;;24.73;;
76536;SDS011;65381;51.254;15.592;2022-11-20T17:04:05;60.53;;;29.95;;
76536;SDS011;65381;51.254;15.592;2022-11-20T17:06:34;67.05;;;29.85;;
76536;SDS011;65381;51.254;15.592;2022-11-20T17:09:03;88.97;;;45.20;;
76536;SDS011;65381;51.254;15.592;2022-11-20T17:11:31;74.38;;;35.40;;
76536;SDS011;65381;51.254;15.592;2022-11-20T17:13:59;62.75;;;27.17;;
76536;SDS011;65381;51.254;15.592;2022-11-20T17:16:29;96.90;;;47.83;;
76536;SDS011;65381;51.254;15.592;2022-11-20T17:18:58;80.15;;;36.72;;
76536;SDS011;65381;51.254;15.592;2022-11-20T17:21:32;64.97;;;27.98;;
76536;SDS011;65381;51.254;15.592;2022-11-20T17:24:05;65.25;;;29.15;;
76536;SDS011;65381;51.254;15.592;2022-11-20T17:26:38;57.85;;;24.17;;
76536;SDS011;65381;51.254;15.592;2022-11-20T17:29:10;52.55;;;21.42;;
76536;SDS011;65381;51.254;15.592;2022-11-20T17:31:47;54.83;;;21.98;;
76536;SDS011;65381;51.254;15.592;2022-11-20T17:34:15;46.67;;;21.55;;
76536;SDS011;65381;51.254;15.592;2022-11-20T17:36:43;48.22;;;19.75;;
76536;SDS011;65381;51.254;15.592;2022-11-20T17:39:13;53.20;;;21.08;;
76536;SDS011;65381;51.254;15.592;2022-11-20T17:41:45;51.47;;;21.65;;
76536;SDS011;65381;51.254;15.592;2022-11-20T17:44:33;53.70;;;21.50;;
76536;SDS011;65381;51.254;15.592;2022-11-20T17:47:01;52.30;;;18.58;;
76536;SDS011;65381;51.254;15.592;2022-11-20T17:49:29;51.97;;;21.20;;
76536;SDS011;65381;51.254;15.592;2022-11-20T17:51:56;50.85;;;19.88;;
76536;SDS011;65381;51.254;15.592;2022-11-20T17:54:24;46.50;;;21.98;;
76536;SDS011;65381;51.254;15.592;2022-11-20T17:56:52;57.28;;;22.23;;
76536;SDS011;65381;51.254;15.592;2022-11-20T17:59:34;57.15;;;21.05;;
76536;SDS011;65381;51.254;15.592;2022-11-20T18:02:03;54.17;;;20.25;;
76536;SDS011;65381;51.254;15.592;2022-11-20T18:04:31;52.30;;;19.88;;
76536;SDS011;65381;51.254;15.592;2022-11-20T18:06:59;54.45;;;21.40;;
76536;SDS011;65381;51.254;15.592;2022-11-20T18:09:27;79.70;;;27.42;;
76536;SDS011;65381;51.254;15.592;2022-11-20T18:11:55;70.38;;;26.60;;
76536;SDS011;65381;51.254;15.592;2022-11-20T18:14:23;75.25;;;30.42;;
76536;SDS011;65381;51.254;15.592;2022-11-20T18:17:07;63.17;;;24.65;;
76536;SDS011;65381;51.254;15.592;2022-11-20T18:19:38;55.00;;;23.17;;
76536;SDS011;65381;51.254;15.592;2022-11-20T18:22:26;54.63;;;20.10;;
76536;SDS011;65381;51.254;15.592;2022-11-20T18:24:54;50.03;;;21.08;;
76536;SDS011;65381;51.254;15.592;2022-11-20T18:27:22;47.40;;;18.23;;
76536;SDS011;65381;51.254;15.592;2022-11-20T18:29:49;50.65;;;21.25;;
76536;SDS011;65381;51.254;15.592;2022-11-20T18:32:21;55.72;;;22.05;;
76536;SDS011;65381;51.254;15.592;2022-11-20T18:34:49;56.92;;;21.42;;
76536;SDS011;65381;51.254;15.592;2022-11-20T18:37:17;52.50;;;21.33;;
76536;SDS011;65381;51.254;15.592;2022-11-20T18:39:46;56.47;;;21.42;;
76536;SDS011;65381;51.254;15.592;2022-11-20T18:42:15;55.22;;;20.45;;
76536;SDS011;65381;51.254;15.592;2022-11-20T18:44:58;51.22;;;19.85;;
76536;SDS011;65381;51.254;15.592;2022-11-20T18:47:29;42.08;;;16.80;;
76536;SDS011;65381;51.254;15.592;2022-11-20T18:49:58;48.47;;;18.42;;
76536;SDS011;65381;51.254;15.592;2022-11-20T18:52:28;39.92;;;18.42;;
76536;SDS011;65381;51.254;15.592;2022-11-20T18:54:56;42.67;;;16.25;;
76536;SDS011;65381;51.254;15.592;2022-11-20T18:57:25;51.28;;;20.10;;
76536;SDS011;65381;51.254;15.592;2022-11-20T18:59:55;52.05;;;19.25;;
76536;SDS011;65381;51.254;15.592;2022-11-20T19:02:34;44.35;;;17.77;;
76536;SDS011;65381;51.254;15.592;2022-11-20T19:05:09;46.33;;;18.77;;
76536;SDS011;65381;51.254;15.592;2022-11-20T19:07:37;49.05;;;19.58;;
76536;SDS011;65381;51.254;15.592;2022-11-20T19:10:05;48.38;;;19.10;;
76536;SDS011;65381;51.254;15.592;2022-11-20T19:12:33;52.10;;;19.50;;
76536;SDS011;65381;51.254;15.592;2022-11-20T19:15:01;51.67;;;20.15;;
76536;SDS011;65381;51.254;15.592;2022-11-20T19:17:29;47.72;;;19.50;;
76536;SDS011;65381;51.254;15.592;2022-11-20T19:19:58;48.92;;;20.95;;
76536;SDS011;65381;51.254;15.592;2022-11-20T19:22:26;52.92;;;20.02;;
76536;SDS011;65381;51.254;15.592;2022-11-20T19:24:55;54.35;;;23.30;;
76536;SDS011;65381;51.254;15.592;2022-11-20T19:27:22;52.90;;;21.98;;
76536;SDS011;65381;51.254;15.592;2022-11-20T19:29:50;57.65;;;21.92;;
76536;SDS011;65381;51.254;15.592;2022-11-20T19:32:18;58.50;;;22.70;;
76536;SDS011;65381;51.254;15.592;2022-11-20T19:34:46;59.67;;;21.92;;
76536;SDS011;65381;51.254;15.592;2022-11-20T19:37:14;61.20;;;24.60;;
76536;SDS011;65381;51.254;15.592;2022-11-20T19:39:42;56.08;;;22.92;;
76536;SDS011;65381;51.254;15.592;2022-11-20T19:42:10;57.08;;;22.08;;
76536;SDS011;65381;51.254;15.592;2022-11-20T19:44:38;58.83;;;23.80;;
76536;SDS011;65381;51.254;15.592;2022-11-20T19:47:06;62.80;;;23.50;;
76536;SDS011;65381;51.254;15.592;2022-11-20T19:49:40;65.45;;;28.00;;
76536;SDS011;65381;51.254;15.592;2022-11-20T19:52:08;93.18;;;39.17;;
76536;SDS011;65381;51.254;15.592;2022-11-20T19:54:36;130.20;;;46.35;;
76536;SDS011;65381;51.254;15.592;2022-11-20T19:57:04;92.25;;;33.47;;
76536;SDS011;65381;51.254;15.592;2022-11-20T19:59:32;101.78;;;35.22;;
76536;SDS011;65381;51.254;15.592;2022-11-20T20:01:59;144.60;;;46.05;;
76536;SDS011;65381;51.254;15.592;2022-11-20T20:04:29;88.53;;;29.88;;
76536;SDS011;65381;51.254;15.592;2022-11-20T20:06:57;76.65;;;27.33;;
76536;SDS011;65381;51.254;15.592;2022-11-20T20:09:25;89.30;;;31.13;;
76536;SDS011;65381;51.254;15.592;2022-11-20T20:11:53;115.22;;;39.72;;
76536;SDS011;65381;51.254;15.592;2022-11-20T20:14:21;100.80;;;35.55;;
76536;SDS011;65381;51.254;15.592;2022-11-20T20:16:48;84.05;;;31.25;;
76536;SDS011;65381;51.254;15.592;2022-11-20T20:19:16;102.38;;;36.30;;
76536;SDS011;65381;51.254;15.592;2022-11-20T20:21:44;81.43;;;31.92;;
76536;SDS011;65381;51.254;15.592;2022-11-20T20:24:14;96.32;;;38.33;;
76536;SDS011;65381;51.254;15.592;2022-11-20T20:26:41;71.95;;;28.77;;
76536;SDS011;65381;51.254;15.592;2022-11-20T20:29:09;91.82;;;37.55;;
76536;SDS011;65381;51.254;15.592;2022-11-20T20:31:38;93.53;;;34.83;;
76536;SDS011;65381;51.254;15.592;2022-11-20T20:34:06;79.95;;;33.40;;
76536;SDS011;65381;51.254;15.592;2022-11-20T20:36:33;66.47;;;27.17;;
76536;SDS011;65381;51.254;15.592;2022-11-20T20:39:01;63.47;;;25.52;;
76536;SDS011;65381;51.254;15.592;2022-11-20T20:41:29;58.40;;;25.70;;
76536;SDS011;65381;51.254;15.592;2022-11-20T20:43:58;57.33;;;25.33;;
76536;SDS011;65381;51.254;15.592;2022-11-20T20:46:41;57.85;;;24.95;;
76536;SDS011;65381;51.254;15.592;2022-11-20T20:49:10;60.83;;;23.85;;
76536;SDS011;65381;51.254;15.592;2022-11-20T20:51:38;55.60;;;22.77;;
76536;SDS011;65381;51.254;15.592;2022-11-20T20:54:05;54.78;;;21.15;;
76536;SDS011;65381;51.254;15.592;2022-11-20T20:56:33;54.53;;;20.58;;
76536;SDS011;65381;51.254;15.592;2022-11-20T20:59:02;56.00;;;21.65;;
76536;SDS011;65381;51.254;15.592;2022-11-20T21:01:30;57.72;;;22.63;;
76536;SDS011;65381;51.254;15.592;2022-11-20T21:03:58;60.75;;;23.73;;
76536;SDS011;65381;51.254;15.592;2022-11-20T21:06:25;58.05;;;21.90;;
76536;SDS011;65381;51.254;15.592;2022-11-20T21:08:53;55.63;;;20.08;;
76536;SDS011;65381;51.254;15.592;2022-11-20T21:11:23;48.85;;;20.58;;
76536;SDS011;65381;51.254;15.592;2022-11-20T21:13:51;47.55;;;19.65;;
76536;SDS011;65381;51.254;15.592;2022-11-20T21:16:19;54.58;;;20.15;;
76536;SDS011;65381;51.254;15.592;2022-11-20T21:18:48;51.28;;;19.42;;
76536;SDS011;65381;51.254;15.592;2022-11-20T21:21:16;52.42;;;19.05;;
76536;SDS011;65381;51.254;15.592;2022-11-20T21:23:58;47.92;;;20.55;;
76536;SDS011;65381;51.254;15.592;2022-11-20T21:26:26;54.22;;;19.70;;
76536;SDS011;65381;51.254;15.592;2022-11-20T21:28:57;50.13;;;20.00;;
76536;SDS011;65381;51.254;15.592;2022-11-20T21:31:25;50.42;;;20.40;;
76536;SDS011;65381;51.254;15.592;2022-11-20T21:33:55;48.92;;;18.77;;
76536;SDS011;65381;51.254;15.592;2022-11-20T21:36:27;50.58;;;18.77;;
76536;SDS011;65381;51.254;15.592;2022-11-20T21:38:56;50.15;;;19.70;;
76536;SDS011;65381;51.254;15.592;2022-11-20T21:41:26;49.85;;;18.75;;
76536;SDS011;65381;51.254;15.592;2022-11-20T21:43:57;44.60;;;16.85;;
76536;SDS011;65381;51.254;15.592;2022-11-20T21:46:46;49.65;;;18.08;;
76536;SDS011;65381;51.254;15.592;2022-11-20T21:49:14;45.63;;;18.63;;
76536;SDS011;65381;51.254;15.592;2022-11-20T21:51:43;47.97;;;18.80;;
76536;SDS011;65381;51.254;15.592;2022-11-20T21:54:11;43.88;;;17.27;;
76536;SDS011;65381;51.254;15.592;2022-11-20T21:56:39;49.40;;;19.65;;
76536;SDS011;65381;51.254;15.592;2022-11-20T21:59:09;46.22;;;17.92;;
76536;SDS011;65381;51.254;15.592;2022-11-20T22:01:38;47.97;;;16.85;;
76536;SDS011;65381;51.254;15.592;2022-11-20T22:04:11;41.85;;;15.73;;
76536;SDS011;65381;51.254;15.592;2022-11-20T22:06:40;41.15;;;15.70;;
76536;SDS011;65381;51.254;15.592;2022-11-20T22:09:08;43.35;;;16.00;;
76536;SDS011;65381;51.254;15.592;2022-11-20T22:11:36;40.72;;;16.52;;
76536;SDS011;65381;51.254;15.592;2022-11-20T22:14:04;39.75;;;15.32;;
76536;SDS011;65381;51.254;15.592;2022-11-20T22:16:46;42.33;;;16.50;;
76536;SDS011;65381;51.254;15.592;2022-11-20T22:19:16;44.88;;;17.85;;
76536;SDS011;65381;51.254;15.592;2022-11-20T22:21:45;44.83;;;17.58;;
76536;SDS011;65381;51.254;15.592;2022-11-20T22:24:14;42.85;;;15.98;;
76536;SDS011;65381;51.254;15.592;2022-11-20T22:26:44;37.13;;;15.48;;
76536;SDS011;65381;51.254;15.592;2022-11-20T22:29:16;48.03;;;17.27;;
76536;SDS011;65381;51.254;15.592;2022-11-20T22:31:45;41.10;;;16.10;;
76536;SDS011;65381;51.254;15.592;2022-11-20T22:34:14;37.85;;;15.05;;
76536;SDS011;65381;51.254;15.592;2022-11-20T22:36:41;41.47;;;15.45;;
76536;SDS011;65381;51.254;15.592;2022-11-20T22:39:10;38.55;;;15.73;;
76536;SDS011;65381;51.254;15.592;2022-11-20T22:41:37;39.60;;;13.70;;
76536;SDS011;65381;51.254;15.592;2022-11-20T22:44:06;34.80;;;13.27;;
76536;SDS011;65381;51.254;15.592;2022-11-20T22:46:34;39.20;;;15.20;;
76536;SDS011;65381;51.254;15.592;2022-11-20T22:49:04;40.17;;;15.20;;
76536;SDS011;65381;51.254;15.592;2022-11-20T22:51:35;32.33;;;14.73;;
76536;SDS011;65381;51.254;15.592;2022-11-20T22:54:06;40.97;;;14.90;;
76536;SDS011;65381;51.254;15.592;2022-11-20T22:56:36;35.58;;;14.18;;
76536;SDS011;65381;51.254;15.592;2022-11-20T22:59:04;34.60;;;14.70;;
76536;SDS011;65381;51.254;15.592;2022-11-20T23:01:35;36.40;;;14.70;;
76536;SDS011;65381;51.254;15.592;2022-11-20T23:04:04;34.45;;;14.32;;
76536;SDS011;65381;51.254;15.592;2022-11-20T23:06:34;34.25;;;14.38;;
76536;SDS011;65381;51.254;15.592;2022-11-20T23:09:05;36.17;;;12.75;;
76536;SDS011;65381;51.254;15.592;2022-11-20T23:11:33;35.60;;;13.82;;
76536;SDS011;65381;51.254;15.592;2022-11-20T23:14:05;30.55;;;12.70;;
76536;SDS011;65381;51.254;15.592;2022-11-20T23:16:34;36.90;;;14.30;;
76536;SDS011;65381;51.254;15.592;2022-11-20T23:19:03;35.67;;;13.48;;
76536;SDS011;65381;51.254;15.592;2022-11-20T23:21:33;31.27;;;12.85;;
76536;SDS011;65381;51.254;15.592;2022-11-20T23:24:03;39.13;;;13.60;;
76536;SDS011;65381;51.254;15.592;2022-11-20T23:26:32;42.47;;;16.10;;
76536;SDS011;65381;51.254;15.592;2022-11-20T23:29:02;39.58;;;15.70;;
76536;SDS011;65381;51.254;15.592;2022-11-20T23:31:31;40.28;;;16.63;;
76536;SDS011;65381;51.254;15.592;2022-11-20T23:34:00;44.33;;;17.40;;
76536;SDS011;65381;51.254;15.592;2022-11-20T23:36:28;42.28;;;16.75;;
76536;SDS011;65381;51.254;15.592;2022-11-20T23:38:56;43.78;;;17.80;;
76536;SDS011;65381;51.254;15.592;2022-11-20T23:41:24;48.33;;;18.05;;
76536;SDS011;65381;51.254;15.592;2022-11-20T23:43:52;41.53;;;15.50;;
76536;SDS011;65381;51.254;15.592;2022-11-20T23:46:20;41.63;;;16.20;;
76536;SDS011;65381;51.254;15.592;2022-11-20T23:48:47;39.90;;;17.40;;
76536;SDS011;65381;51.254;15.592;2022-11-20T23:51:15;41.05;;;15.45;;
76536;SDS011;65381;51.254;15.592;2022-11-20T23:53:44;43.90;;;16.58;;
76536;SDS011;65381;51.254;15.592;2022-11-20T23:56:11;35.33;;;14.02;;
76536;SDS011;65381;51.254;15.592;2022-11-20T23:58:41;38.33;;;13.52;;
